Ana Sayfa
METAR-TAF:

METAR-TAF

Havaalanları :

Rocky Mount-Wilson Regional Airport

Rocky Mount, Kuzey Carolina, Amerika Birleşik Devletleri

Enlem: 35-51-18N, Boylam: 077-53-35W, yükseklik: 49 m

Güncel hava durumu gözlemi

Rapor saat 14:53 UTC de 49 dakika önce yapıldı.
Rüzgar kuzeydan 12 kt
Sıcaklık 22°C
Nem 43%
Basınç 1020 hPa
Görüş mesafesi: 16.1 km
Açık gökyüzü

METAR: KRWI 241453Z AUTO 36012KT 10SM CLR 22/09 A3012 RMK AO2 SLP200 T02170094 51012

Saat: 11:42 (15:42 UTC)

Tahmin

Rapor saat 11:20 UTC de 4 saat ve 22 dakika önce yapıldı.
Ayın 24'si saat 12 UTC'den ayın 25'si saat 12 UTC'ye kadar geçerli Tahmin
Rüzgar kuzeydan 3 kt
Görüş mesafesi: 10 km
Açık gökyüzü

TAF: KRWI 241120Z 2412/2512 35003KT P6SM SKC

4.000'den fazla havaalanı için hava durumu gözlemleri ve tahminleri (METAR ve TAF raporları).

Kullanılabilir istasyonlar harita üzerinde sarı ve kırmızı noktalarla gösterilir.

İstasyonun adını görmek için fareyi noktanın üzerinde gezdirin.

Sonrasında hava gözlem ve tahminlerini görmek için tıklayın.

Haritayı değiştirmek için: yaklaştırmak için siyah artı işaretli yeşil düğmeye ve uzaklaştırmak için de eksi işaretli düğmeye hızla tıklayın; bitişik haritalar için yeşil okları kullanın.


METAR-TAF: